Time;durP1;ratioP1;P1;durP2;ratioP2;P2;SDS_P1;SDS_P2;PMS_P1;PMS_P2;Temp;Humidity;BMP_temperature;BMP_pressure;BME280_temperature;BME280_humidity;BME280_pressure;Samples;Min_cycle;Max_cycle;Signal;HPM_P1;HPM_P2
2023/06/04 00:02:20;;;;;;;3.00;2.40;;;;;;;9.38;87.99;96453.78;7399446;19;20353;-76
2023/06/04 00:04:47;;;;;;;2.63;2.30;;;;;;;9.45;89.57;96491.78;7398729;19;20386;-75
2023/06/04 00:07:14;;;;;;;7.53;2.40;;;;;;;9.50;89.44;96504.03;7398089;19;20381;-76
2023/06/04 00:09:42;;;;;;;3.40;2.17;;;;;;;9.26;89.53;96462.34;7401482;19;20725;-75
2023/06/04 00:12:09;;;;;;;2.70;1.73;;;;;;;8.88;91.45;96452.47;7399877;19;20461;-76
2023/06/04 00:14:36;;;;;;;2.73;2.43;;;;;;;9.24;92.48;96487.50;7401702;19;20428;-76
2023/06/04 00:17:03;;;;;;;3.10;2.27;;;;;;;9.32;89.23;96465.56;7400561;19;20369;-76
2023/06/04 00:19:30;;;;;;;2.27;2.07;;;;;;;9.16;88.12;96463.44;7414712;19;20419;-78
2023/06/04 00:21:57;;;;;;;2.90;2.03;;;;;;;9.02;87.58;96436.47;7437365;19;20413;-80
2023/06/04 00:24:24;;;;;;;2.33;1.80;;;;;;;9.30;86.55;96488.88;7434807;19;20404;-80
2023/06/04 00:26:51;;;;;;;2.60;2.20;;;;;;;9.40;85.58;96467.44;7416116;19;20364;-76
2023/06/04 00:29:17;;;;;;;2.17;1.93;;;;;;;9.13;85.51;96447.47;7403293;19;20345;-76
2023/06/04 00:31:44;;;;;;;2.27;2.07;;;;;;;8.67;94.50;96480.53;7399859;19;20379;-76
2023/06/04 00:34:11;;;;;;;4.37;2.70;;;;;;;8.57;95.22;96436.03;7399287;19;20445;-75
2023/06/04 00:36:42;;;;;;;2.30;2.20;;;;;;;9.08;92.74;96469.50;7395189;19;20364;-75
2023/06/04 00:39:09;;;;;;;3.33;2.27;;;;;;;9.14;92.29;96486.72;7401009;19;20380;-76
2023/06/04 00:41:36;;;;;;;3.00;2.50;;;;;;;9.17;89.55;96467.63;7399567;19;20365;-76
2023/06/04 00:44:06;;;;;;;3.37;2.50;;;;;;;8.99;88.81;96452.91;7398875;19;20401;-76
2023/06/04 00:46:35;;;;;;;2.67;1.93;;;;;;;9.10;91.70;96475.25;7399307;19;20372;-76
2023/06/04 00:49:03;;;;;;;2.60;2.40;;;;;;;9.13;91.40;96476.47;7401161;19;20385;-76
2023/06/04 00:51:32;;;;;;;2.30;2.07;;;;;;;9.19;90.89;96467.31;7400847;19;20353;-76
2023/06/04 00:54:02;;;;;;;2.53;2.00;;;;;;;9.01;91.04;96448.09;7396166;19;20526;-76
2023/06/04 00:56:29;;;;;;;4.10;2.20;;;;;;;8.72;94.73;96442.72;7399772;19;20397;-76
2023/06/04 00:58:56;;;;;;;4.23;2.27;;;;;;;8.86;95.03;96441.44;7398023;19;20468;-75
2023/06/04 01:01:43;;;;;;;2.27;2.07;;;;;;;8.67;98.55;96463.94;7398016;19;20369;-76
2023/06/04 01:04:16;;;;;;;4.03;2.23;;;;;;;8.64;100.00;96475.88;7396731;19;20425;-75
2023/06/04 01:06:45;;;;;;;2.60;2.23;;;;;;;8.02;100.00;96456.84;7400000;19;20928;-76
2023/06/04 01:09:13;;;;;;;6.00;2.47;;;;;;;8.06;100.00;96424.34;7398915;19;20377;-76
2023/06/04 01:11:40;;;;;;;6.37;2.50;;;;;;;7.88;100.00;96422.72;7400865;19;20380;-76
2023/06/04 01:14:09;;;;;;;2.23;1.77;;;;;;;8.25;100.00;96427.44;7398201;19;20737;-76
2023/06/04 01:17:01;;;;;;;2.10;2.00;;;;;;;8.34;100.00;96479.38;7401155;19;20376;-76
2023/06/04 01:19:51;;;;;;;4.10;2.20;;;;;;;8.34;100.00;96468.84;7399318;19;20380;-76
2023/06/04 01:22:35;;;;;;;2.23;1.90;;;;;;;8.00;100.00;96465.81;7398400;19;20369;-76
2023/06/04 01:25:18;;;;;;;1.97;1.87;;;;;;;8.30;100.00;96464.19;7397967;19;20369;-76
2023/06/04 01:27:52;;;;;;;3.40;2.23;;;;;;;8.07;100.00;96472.50;7399719;19;20409;-76
2023/06/04 01:30:25;;;;;;;2.83;2.30;;;;;;;8.08;100.00;96474.06;7398117;19;20749;-76
2023/06/04 01:32:54;;;;;;;3.50;2.13;;;;;;;7.84;100.00;96419.94;7398706;19;20431;-76
2023/06/04 01:35:22;;;;;;;3.70;2.53;;;;;;;7.84;100.00;96453.38;7397916;19;20736;-76
2023/06/04 01:37:52;;;;;;;5.10;2.33;;;;;;;7.37;100.00;96443.28;7397341;19;20373;-76
2023/06/04 01:40:20;;;;;;;2.43;2.03;;;;;;;7.76;100.00;96448.88;7394291;19;20392;-76
2023/06/04 01:42:47;;;;;;;2.80;2.37;;;;;;;7.65;100.00;96430.72;7396178;19;20753;-77
2023/06/04 01:45:14;;;;;;;2.47;2.20;;;;;;;7.19;100.00;96428.50;7397757;19;20383;-75
2023/06/04 01:47:41;;;;;;;2.43;2.23;;;;;;;7.47;100.00;96446.72;7396154;19;20968;-75
2023/06/04 01:50:09;;;;;;;2.67;2.40;;;;;;;7.17;100.00;96393.84;7398240;19;20413;-76
2023/06/04 01:52:36;;;;;;;2.67;2.47;;;;;;;7.77;100.00;96434.63;7397504;19;20403;-75
2023/06/04 01:55:04;;;;;;;3.10;2.17;;;;;;;7.70;100.00;96469.28;7398275;19;20964;-76
2023/06/04 01:57:31;;;;;;;3.27;2.60;;;;;;;7.63;100.00;96442.63;7397166;19;20432;-76
2023/06/04 01:59:58;;;;;;;2.47;2.03;;;;;;;7.52;100.00;96417.66;7398305;19;20413;-76
2023/06/04 02:02:25;;;;;;;3.80;2.60;;;;;;;7.55;100.00;96473.09;7395756;19;20404;-76
2023/06/04 02:04:53;;;;;;;2.30;2.10;;;;;;;7.65;100.00;96451.78;7398560;19;20392;-75
2023/06/04 02:07:22;;;;;;;5.83;2.73;;;;;;;7.75;100.00;96423.63;7396770;19;20635;-76
2023/06/04 02:09:50;;;;;;;2.13;1.93;;;;;;;7.86;100.00;96480.94;7397750;19;20385;-76
2023/06/04 02:12:17;;;;;;;3.83;2.63;;;;;;;7.87;100.00;96463.28;7396011;19;20721;-75
2023/06/04 02:14:45;;;;;;;2.63;2.20;;;;;;;7.42;100.00;96468.69;7398609;19;20403;-75
2023/06/04 02:17:12;;;;;;;2.07;1.97;;;;;;;7.38;100.00;96465.88;7396285;19;20374;-75
2023/06/04 02:19:44;;;;;;;3.70;1.90;;;;;;;7.38;100.00;96473.78;7397449;19;20752;-76
2023/06/04 02:22:12;;;;;;;2.70;1.93;;;;;;;7.46;100.00;96477.50;7399087;19;20353;-76
2023/06/04 02:24:42;;;;;;;2.60;2.00;;;;;;;6.76;100.00;96442.13;7394818;19;20368;-75
2023/06/04 02:27:10;;;;;;;4.50;2.40;;;;;;;6.83;100.00;96425.97;7396350;19;20404;-76
2023/06/04 02:29:40;;;;;;;2.40;2.20;;;;;;;6.76;100.00;96449.25;7396375;19;20353;-76
2023/06/04 02:32:07;;;;;;;2.70;2.50;;;;;;;6.86;100.00;96435.09;7397061;19;20388;-76
2023/06/04 02:34:35;;;;;;;2.50;2.30;;;;;;;7.21;100.00;96470.25;7394676;19;20376;-75
2023/06/04 02:37:03;;;;;;;2.50;2.30;;;;;;;7.58;100.00;96480.38;7396028;19;20400;-76
2023/06/04 02:39:30;;;;;;;4.13;2.00;;;;;;;7.30;100.00;96460.56;7395930;19;20347;-75
2023/06/04 02:41:57;;;;;;;4.00;2.37;;;;;;;7.27;100.00;96474.31;7395995;19;20373;-76
2023/06/04 02:44:25;;;;;;;3.90;2.20;;;;;;;6.94;100.00;96471.16;7393019;19;20520;-76
2023/06/04 02:46:53;;;;;;;2.63;2.43;;;;;;;7.15;100.00;96472.25;7396248;19;20336;-76
2023/06/04 02:49:20;;;;;;;3.03;2.07;;;;;;;7.14;100.00;96454.13;7393788;19;21113;-77
2023/06/04 02:51:47;;;;;;;3.17;1.90;;;;;;;6.92;100.00;96454.91;7396699;19;20397;-77
2023/06/04 02:54:15;;;;;;;2.67;2.47;;;;;;;6.78;100.00;96466.25;7392770;19;20727;-76
2023/06/04 02:56:43;;;;;;;2.93;2.30;;;;;;;6.91;100.00;96477.03;7397641;19;20384;-76
2023/06/04 02:59:10;;;;;;;2.60;2.40;;;;;;;6.85;100.00;96457.19;7393012;19;20418;-76
2023/06/04 03:01:40;;;;;;;3.73;2.30;;;;;;;6.78;100.00;96481.25;7394585;19;20908;-75
2023/06/04 03:04:10;;;;;;;3.30;2.30;;;;;;;6.81;100.00;96478.03;7393065;19;20425;-76
2023/06/04 03:06:40;;;;;;;8.60;2.60;;;;;;;6.78;100.00;96471.50;7404406;19;20392;-76
2023/06/04 03:09:07;;;;;;;3.80;2.10;;;;;;;6.88;100.00;96475.78;7400243;19;20387;-75
2023/06/04 03:11:34;;;;;;;3.00;2.80;;;;;;;7.02;100.00;96484.38;7396878;19;20377;-75
2023/06/04 03:14:01;;;;;;;5.33;2.40;;;;;;;6.92;100.00;96476.72;7394080;19;20468;-75
2023/06/04 03:16:28;;;;;;;3.67;1.90;;;;;;;6.75;100.00;96466.88;7398467;19;20365;-75
2023/06/04 03:18:56;;;;;;;2.60;2.13;;;;;;;7.16;100.00;96496.69;7397503;19;20380;-75
2023/06/04 03:21:24;;;;;;;2.90;2.03;;;;;;;6.61;100.00;96474.00;7392611;19;20791;-75
2023/06/04 03:23:52;;;;;;;5.73;2.50;;;;;;;6.55;100.00;96487.56;7399559;19;20380;-75
2023/06/04 03:26:19;;;;;;;2.90;2.27;;;;;;;5.98;100.00;96435.44;7401549;19;20899;-75
2023/06/04 03:28:46;;;;;;;3.27;2.40;;;;;;;6.60;100.00;96469.06;7400457;19;20361;-75
2023/06/04 03:31:18;;;;;;;10.20;2.90;;;;;;;6.57;100.00;96491.44;7400223;19;20967;-76
2023/06/04 03:33:45;;;;;;;2.90;2.10;;;;;;;6.56;100.00;96508.28;7402313;19;20427;-76
2023/06/04 03:36:13;;;;;;;3.33;2.20;;;;;;;6.55;100.00;96477.06;7400417;19;20433;-75
2023/06/04 03:38:40;;;;;;;3.90;2.50;;;;;;;6.78;100.00;96502.28;7403099;19;20372;-75
2023/06/04 03:41:07;;;;;;;2.60;2.17;;;;;;;6.83;100.00;96481.16;7392063;19;20386;-75
2023/06/04 03:43:35;;;;;;;3.23;2.20;;;;;;;6.52;100.00;96468.69;7392726;19;20426;-75
2023/06/04 03:46:05;;;;;;;4.30;2.60;;;;;;;6.64;100.00;96470.00;7392536;19;20484;-75
2023/06/04 03:48:32;;;;;;;2.23;2.00;;;;;;;6.96;100.00;96501.34;7394426;19;20376;-75
2023/06/04 03:50:59;;;;;;;2.13;1.93;;;;;;;6.51;100.00;96484.72;7392963;19;20383;-75
2023/06/04 03:53:26;;;;;;;3.83;3.00;;;;;;;6.66;100.00;96465.22;7392814;19;20749;-75
2023/06/04 03:55:53;;;;;;;3.00;2.37;;;;;;;6.31;100.00;96506.97;7392803;19;20440;-75
2023/06/04 03:58:21;;;;;;;3.90;2.50;;;;;;;6.39;100.00;96502.84;7394394;19;20380;-76
2023/06/04 04:00:49;;;;;;;6.40;2.77;;;;;;;6.69;100.00;96499.59;7391936;19;20364;-76
2023/06/04 04:03:18;;;;;;;3.97;2.67;;;;;;;6.43;100.00;96433.69;7393041;19;20408;-76
2023/06/04 04:05:45;;;;;;;2.47;2.13;;;;;;;6.97;100.00;96499.50;7392692;19;20395;-76
2023/06/04 04:08:16;;;;;;;3.00;2.27;;;;;;;7.04;100.00;96502.47;7394294;19;20400;-76
2023/06/04 04:10:44;;;;;;;2.40;2.03;;;;;;;6.98;100.00;96509.72;7392468;19;20915;-76
2023/06/04 04:13:11;;;;;;;2.93;2.30;;;;;;;6.72;100.00;96462.22;7399687;19;20428;-75
2023/06/04 04:15:40;;;;;;;8.53;3.33;;;;;;;7.15;100.00;96481.97;7400028;19;20368;-75
2023/06/04 04:18:08;;;;;;;7.00;3.23;;;;;;;7.04;100.00;96489.31;7401892;19;20484;-76
2023/06/04 04:20:35;;;;;;;4.00;3.33;;;;;;;6.92;100.00;96481.97;7399174;19;20409;-76
2023/06/04 04:23:08;;;;;;;3.43;2.30;;;;;;;7.07;100.00;96484.25;7400391;19;20952;-76
2023/06/04 04:25:37;;;;;;;11.57;2.63;;;;;;;7.18;100.00;96484.00;7400471;19;20387;-75
2023/06/04 04:28:08;;;;;;;2.30;2.10;;;;;;;7.47;100.00;96505.38;7398397;19;20910;-75
2023/06/04 04:30:37;;;;;;;2.87;2.33;;;;;;;7.83;100.00;96504.47;7400333;19;20422;-75
2023/06/04 04:33:06;;;;;;;7.43;2.33;;;;;;;8.08;100.00;96505.66;7397976;19;20428;-75
2023/06/04 04:35:42;;;;;;;3.20;2.40;;;;;;;8.17;100.00;96501.97;7400487;19;20392;-75
2023/06/04 04:38:10;;;;;;;4.13;2.70;;;;;;;8.33;100.00;96496.28;7398973;19;20933;-75
2023/06/04 04:40:43;;;;;;;2.70;2.47;;;;;;;8.38;100.00;96490.88;7400485;19;20403;-75
2023/06/04 04:43:12;;;;;;;4.10;2.73;;;;;;;8.74;100.00;96509.84;7398200;19;20755;-75
2023/06/04 04:45:39;;;;;;;6.17;2.93;;;;;;;8.58;100.00;96485.81;7401022;19;20480;-75
2023/06/04 04:48:09;;;;;;;3.00;2.80;;;;;;;8.76;100.00;96526.13;7428027;19;20432;-75
2023/06/04 04:50:36;;;;;;;3.33;2.40;;;;;;;8.91;100.00;96503.00;7436445;19;20397;-75
2023/06/04 04:53:04;;;;;;;2.97;1.93;;;;;;;8.77;100.00;96496.03;7433436;19;20408;-75
2023/06/04 04:55:32;;;;;;;11.93;2.60;;;;;;;9.12;100.00;96507.34;7403925;19;20733;-76
2023/06/04 04:57:59;;;;;;;7.67;2.27;;;;;;;9.31;100.00;96503.59;7399716;19;20372;-76
2023/06/04 05:00:27;;;;;;;6.83;3.13;;;;;;;9.15;100.00;96501.44;7397522;19;20372;-76
2023/06/04 05:02:55;;;;;;;3.37;2.23;;;;;;;9.21;100.00;96502.06;7398011;19;20417;-76
2023/06/04 05:05:23;;;;;;;3.80;3.50;;;;;;;9.48;100.00;96491.16;7397806;19;20381;-76
2023/06/04 05:07:51;;;;;;;3.73;2.77;;;;;;;9.96;100.00;96516.47;7399043;19;20365;-76
2023/06/04 05:10:21;;;;;;;4.30;2.90;;;;;;;10.23;100.00;96506.59;7397543;19;21001;-76
2023/06/04 05:12:56;;;;;;;4.73;2.90;;;;;;;10.70;100.00;96535.56;7398441;19;20503;-76
2023/06/04 05:15:29;;;;;;;4.10;2.03;;;;;;;10.78;100.00;96532.06;7398667;19;20452;-76
2023/06/04 05:17:58;;;;;;;4.30;3.13;;;;;;;11.09;98.86;96556.28;7399399;19;20424;-76
2023/06/04 05:20:28;;;;;;;6.63;3.10;;;;;;;10.60;100.00;96524.25;7397819;19;20386;-76
2023/06/04 05:22:56;;;;;;;5.33;2.77;;;;;;;10.64;100.00;96527.03;7397444;19;20427;-76
2023/06/04 05:25:23;;;;;;;6.30;3.07;;;;;;;10.37;100.00;96536.19;7397945;19;20397;-76
2023/06/04 05:27:51;;;;;;;4.50;3.00;;;;;;;10.24;100.00;96548.53;7399388;19;20385;-76
2023/06/04 05:30:19;;;;;;;4.33;2.60;;;;;;;10.16;100.00;96520.28;7396478;19;20956;-76
2023/06/04 05:32:47;;;;;;;2.80;2.47;;;;;;;10.70;100.00;96554.06;7398824;19;20433;-76
2023/06/04 05:35:16;;;;;;;2.80;2.40;;;;;;;10.72;100.00;96514.84;7397624;19;20380;-75
2023/06/04 05:37:45;;;;;;;5.80;3.50;;;;;;;11.04;100.00;96559.13;7399183;19;20407;-76
2023/06/04 05:40:15;;;;;;;6.43;3.03;;;;;;;11.44;100.00;96543.50;7397488;19;20408;-76
2023/06/04 05:42:43;;;;;;;3.33;2.50;;;;;;;11.68;99.60;96536.75;7394089;19;20439;-76
2023/06/04 05:45:10;;;;;;;8.80;2.73;;;;;;;12.04;97.84;96559.94;7397532;19;20409;-76
2023/06/04 05:47:40;;;;;;;3.23;2.27;;;;;;;11.94;95.39;96533.84;7395934;19;20376;-76
2023/06/04 05:50:07;;;;;;;4.67;2.40;;;;;;;12.25;95.59;96557.94;7397856;19;20411;-76
2023/06/04 05:52:36;;;;;;;4.63;2.90;;;;;;;12.19;96.56;96535.44;7395314;19;20435;-76
2023/06/04 05:55:07;;;;;;;3.57;2.60;;;;;;;12.35;91.86;96536.31;7398146;19;20412;-76
2023/06/04 05:57:36;;;;;;;4.00;3.60;;;;;;;12.60;92.08;96552.22;7396360;19;20386;-76
2023/06/04 06:00:10;;;;;;;3.33;2.87;;;;;;;12.84;88.86;96544.22;7397975;19;20372;-76
2023/06/04 06:02:40;;;;;;;3.70;2.50;;;;;;;13.16;89.29;96542.47;7395190;19;20408;-76
2023/06/04 06:05:18;;;;;;;5.40;2.53;;;;;;;13.48;88.05;96561.94;7398276;19;20376;-77
2023/06/04 06:07:46;;;;;;;3.33;2.60;;;;;;;13.47;84.69;96533.84;7396658;19;20380;-76
2023/06/04 06:10:15;;;;;;;2.60;2.40;;;;;;;14.01;82.92;96575.84;7398511;19;20372;-77
2023/06/04 06:12:42;;;;;;;2.73;2.27;;;;;;;14.30;81.45;96560.63;7396436;19;20831;-76
2023/06/04 06:15:10;;;;;;;2.73;2.53;;;;;;;14.43;82.41;96554.88;7394186;19;20345;-75
2023/06/04 06:17:38;;;;;;;4.57;2.27;;;;;;;14.44;80.76;96582.28;7398385;19;20397;-75
2023/06/04 06:20:07;;;;;;;4.77;2.63;;;;;;;14.46;81.09;96561.41;7396705;19;20373;-75
2023/06/04 06:22:35;;;;;;;2.40;2.20;;;;;;;14.61;79.01;96557.94;7396522;19;20417;-76
2023/06/04 06:25:05;;;;;;;4.30;2.43;;;;;;;14.55;78.26;96551.34;7396125;19;20778;-75
2023/06/04 06:27:36;;;;;;;3.83;2.40;;;;;;;15.21;77.22;96571.78;7397772;19;20396;-76
2023/06/04 06:30:05;;;;;;;2.60;2.40;;;;;;;15.50;74.94;96581.13;7396476;19;20397;-75
2023/06/04 06:32:32;;;;;;;2.60;2.13;;;;;;;15.38;73.14;96574.03;7394017;19;20761;-76
2023/06/04 06:34:59;;;;;;;4.23;2.50;;;;;;;15.19;75.68;96546.59;7392627;19;20411;-77
2023/06/04 06:37:26;;;;;;;3.47;2.53;;;;;;;14.71;75.42;96561.97;7398284;19;20381;-76
2023/06/04 06:39:53;;;;;;;8.70;2.77;;;;;;;15.46;74.24;96592.81;7395830;19;20384;-76
2023/06/04 06:42:20;;;;;;;3.20;2.67;;;;;;;15.81;72.27;96566.88;7395535;19;20904;-76
2023/06/04 06:44:50;;;;;;;3.10;2.90;;;;;;;15.99;70.52;96593.06;7395245;19;20771;-76
2023/06/04 06:47:17;;;;;;;3.33;2.40;;;;;;;16.42;68.67;96589.22;7397384;19;20385;-76
2023/06/04 06:49:44;;;;;;;3.90;2.50;;;;;;;16.33;69.20;96605.50;7395328;19;20378;-76
2023/06/04 06:52:11;;;;;;;3.20;2.90;;;;;;;16.08;68.01;96575.72;7396532;19;20344;-76
2023/06/04 06:54:38;;;;;;;6.03;3.50;;;;;;;16.85;67.75;96590.69;7395375;19;20740;-76
2023/06/04 06:57:08;;;;;;;4.20;3.80;;;;;;;17.18;67.42;96589.97;7396711;19;20959;-77
2023/06/04 06:59:36;;;;;;;2.27;2.07;;;;;;;17.57;65.11;96576.31;7395405;19;20361;-77
2023/06/04 07:02:03;;;;;;;7.50;3.30;;;;;;;17.77;64.71;96599.13;7392668;19;20896;-77
2023/06/04 07:04:30;;;;;;;3.30;3.00;;;;;;;17.40;63.75;96580.34;7395290;19;20367;-78
2023/06/04 07:06:57;;;;;;;2.87;2.37;;;;;;;18.04;63.46;96588.31;7395011;19;20399;-77
2023/06/04 07:09:24;;;;;;;5.50;3.60;;;;;;;18.06;63.30;96594.06;7395349;19;20742;-77
2023/06/04 07:11:51;;;;;;;2.63;2.40;;;;;;;17.58;62.28;96583.22;7393625;19;20409;-77
2023/06/04 07:14:18;;;;;;;4.00;2.63;;;;;;;17.89;61.56;96596.19;7393648;19;20422;-77
2023/06/04 07:16:45;;;;;;;3.03;2.83;;;;;;;18.05;61.99;96595.22;7393911;19;20371;-77
2023/06/04 07:19:12;;;;;;;2.80;2.60;;;;;;;18.02;60.45;96608.16;7394838;19;20377;-77
2023/06/04 07:21:39;;;;;;;7.80;2.60;;;;;;;17.71;61.00;96576.50;7393482;19;20382;-77
2023/06/04 07:24:06;;;;;;;3.27;2.50;;;;;;;18.24;61.12;96619.84;7393102;19;20414;-77
2023/06/04 07:26:34;;;;;;;3.90;3.03;;;;;;;18.44;60.38;96607.03;7393798;19;20712;-76
2023/06/04 07:29:00;;;;;;;2.77;2.57;;;;;;;18.21;59.49;96593.06;7396243;19;20373;-77
2023/06/04 07:31:27;;;;;;;3.90;2.47;;;;;;;18.83;59.89;96609.25;7394866;19;20740;-76
2023/06/04 07:33:54;;;;;;;4.23;3.00;;;;;;;18.80;58.87;96620.72;7392942;19;20429;-77
2023/06/04 07:36:22;;;;;;;4.00;2.90;;;;;;;17.61;59.12;96611.88;7394530;19;20350;-77
2023/06/04 07:38:49;;;;;;;3.63;2.60;;;;;;;17.88;58.85;96617.94;7396205;19;20912;-77
2023/06/04 07:41:16;;;;;;;3.47;3.17;;;;;;;18.56;58.40;96612.09;7394466;19;20370;-77
2023/06/04 07:43:43;;;;;;;4.77;3.70;;;;;;;18.71;58.13;96610.34;7392779;19;20428;-76
2023/06/04 07:46:11;;;;;;;3.27;3.00;;;;;;;17.86;58.71;96596.91;7398401;19;20344;-76
2023/06/04 07:48:38;;;;;;;3.33;2.70;;;;;;;18.21;58.62;96604.53;7402559;19;20386;-75
2023/06/04 07:51:05;;;;;;;3.13;2.90;;;;;;;18.32;58.33;96615.34;7400588;19;20370;-76
2023/06/04 07:53:32;;;;;;;3.30;2.87;;;;;;;18.27;59.09;96581.63;7400298;19;20548;-76
2023/06/04 07:55:59;;;;;;;4.03;2.40;;;;;;;18.58;59.22;96588.41;7402140;19;20373;-75
2023/06/04 07:58:26;;;;;;;3.70;3.30;;;;;;;19.07;57.38;96594.47;7402141;19;20368;-76
2023/06/04 08:00:53;;;;;;;2.93;2.50;;;;;;;19.13;57.01;96601.78;7401788;19;20369;-76
2023/06/04 08:03:21;;;;;;;4.20;2.40;;;;;;;19.76;57.44;96618.56;7399351;19;20538;-75
2023/06/04 08:05:49;;;;;;;6.40;2.93;;;;;;;18.87;57.79;96597.44;7400007;19;21016;-75
2023/06/04 08:08:16;;;;;;;4.00;3.17;;;;;;;19.31;57.37;96591.16;7403235;19;20379;-76
2023/06/04 08:10:43;;;;;;;4.50;3.20;;;;;;;19.57;57.16;96589.38;7400152;19;20369;-76
2023/06/04 08:13:10;;;;;;;5.60;2.43;;;;;;;19.75;55.30;96601.69;7401894;19;20867;-75
2023/06/04 08:15:37;;;;;;;3.40;2.37;;;;;;;19.77;55.51;96593.28;7400385;19;20378;-76
2023/06/04 08:18:04;;;;;;;8.30;2.40;;;;;;;19.72;56.39;96596.31;7401781;19;20365;-76
2023/06/04 08:20:31;;;;;;;3.70;2.87;;;;;;;20.25;54.69;96595.66;7400293;19;20899;-75
2023/06/04 08:22:58;;;;;;;3.27;3.07;;;;;;;20.23;54.51;96600.66;7399473;19;20388;-75
2023/06/04 08:25:24;;;;;;;2.60;2.40;;;;;;;19.58;55.56;96610.44;7400159;19;20713;-76
2023/06/04 08:27:51;;;;;;;3.07;2.77;;;;;;;19.67;54.81;96594.78;7401637;19;20424;-75
2023/06/04 08:30:18;;;;;;;3.70;3.37;;;;;;;19.90;55.25;96596.34;7398892;19;20395;-76
2023/06/04 08:32:45;;;;;;;3.57;3.27;;;;;;;20.17;54.17;96612.94;7401985;19;20419;-76
2023/06/04 08:35:12;;;;;;;3.17;2.90;;;;;;;21.04;53.84;96615.22;7400170;19;20342;-76
2023/06/04 08:37:40;;;;;;;3.63;3.10;;;;;;;20.66;52.53;96612.19;7402705;19;20343;-75
2023/06/04 08:40:08;;;;;;;3.97;2.60;;;;;;;20.59;53.57;96612.22;7400549;19;20899;-76
2023/06/04 08:42:46;;;;;;;2.80;2.50;;;;;;;20.72;53.08;96620.66;7400600;19;20402;-76
2023/06/04 08:45:16;;;;;;;4.33;2.30;;;;;;;21.53;53.74;96614.38;7399863;19;20384;-76
2023/06/04 08:47:49;;;;;;;4.90;2.70;;;;;;;21.11;51.20;96607.94;7400953;19;20375;-75
2023/06/04 08:50:18;;;;;;;4.70;2.87;;;;;;;20.66;50.89;96634.47;7400277;19;20380;-75
2023/06/04 08:52:46;;;;;;;3.90;2.83;;;;;;;20.98;50.63;96630.22;7397854;19;20888;-76
2023/06/04 08:55:14;;;;;;;2.57;2.37;;;;;;;21.29;51.46;96618.66;7399695;19;20481;-75
2023/06/04 08:57:44;;;;;;;5.97;3.00;;;;;;;21.31;51.10;96623.66;7396790;19;20378;-76
2023/06/04 09:00:12;;;;;;;4.10;2.50;;;;;;;21.52;51.19;96629.75;7400534;19;20408;-75
2023/06/04 09:02:39;;;;;;;3.10;2.77;;;;;;;21.45;51.08;96597.47;7399441;19;20408;-76
2023/06/04 09:05:09;;;;;;;5.20;3.63;;;;;;;21.16;50.55;96587.94;7400069;19;20376;-75
2023/06/04 09:07:38;;;;;;;3.93;3.50;;;;;;;21.30;51.97;96612.13;7398993;19;20405;-76
2023/06/04 09:10:08;;;;;;;2.70;1.83;;;;;;;21.22;51.19;96581.75;7400444;19;20369;-76
2023/06/04 09:12:43;;;;;;;3.50;3.17;;;;;;;22.03;49.97;96625.63;7398683;19;20436;-76
2023/06/04 09:15:11;;;;;;;2.90;2.70;;;;;;;21.90;49.32;96626.47;7397603;19;20449;-76
2023/06/04 09:17:38;;;;;;;4.50;3.10;;;;;;;20.29;51.22;96601.78;7399118;19;20412;-76
2023/06/04 09:20:08;;;;;;;3.13;2.83;;;;;;;20.12;51.22;96624.03;7397495;19;20385;-76
2023/06/04 09:22:37;;;;;;;3.63;2.10;;;;;;;20.96;51.86;96604.47;7399921;19;20402;-76
2023/06/04 09:25:07;;;;;;;3.33;2.67;;;;;;;21.44;49.73;96616.69;7398528;19;20452;-76
2023/06/04 09:27:42;;;;;;;4.13;2.93;;;;;;;21.95;49.83;96628.78;7399505;19;20407;-76
2023/06/04 09:30:09;;;;;;;4.10;2.60;;;;;;;22.08;49.08;96616.44;7398965;19;20375;-76
2023/06/04 09:32:36;;;;;;;3.03;2.73;;;;;;;21.72;48.79;96618.50;7405291;19;20391;-75
2023/06/04 09:35:14;;;;;;;3.30;2.70;;;;;;;21.56;49.46;96635.09;7420539;19;20388;-76
2023/06/04 09:37:42;;;;;;;3.10;2.40;;;;;;;20.63;49.16;96618.34;7414844;19;20389;-76
2023/06/04 09:40:12;;;;;;;5.43;2.87;;;;;;;21.00;49.79;96620.63;7399462;19;20376;-76
2023/06/04 09:42:53;;;;;;;5.17;2.87;;;;;;;21.63;48.55;96612.75;7397539;19;20396;-76
2023/06/04 09:45:28;;;;;;;3.43;2.80;;;;;;;21.90;48.44;96626.47;7401590;19;20743;-76
2023/06/04 09:47:56;;;;;;;2.63;2.43;;;;;;;22.08;47.45;96600.28;7397666;19;20429;-76
2023/06/04 09:50:46;;;;;;;3.00;2.70;;;;;;;22.43;46.77;96624.25;7399227;19;20360;-76
2023/06/04 09:53:25;;;;;;;3.37;3.07;;;;;;;22.20;46.44;96599.81;7396812;19;20444;-76
2023/06/04 09:56:00;;;;;;;3.90;2.90;;;;;;;21.90;47.90;96602.25;7398880;19;20370;-77
2023/06/04 09:58:28;;;;;;;6.63;2.53;;;;;;;22.27;48.05;96618.59;7398972;19;20408;-76
2023/06/04 10:00:57;;;;;;;4.50;2.60;;;;;;;21.44;48.22;96597.84;7396998;19;20383;-77
2023/06/04 10:03:25;;;;;;;3.47;2.80;;;;;;;20.22;47.82;96569.56;7398513;19;20484;-77
2023/06/04 10:05:55;;;;;;;5.53;2.83;;;;;;;20.14;48.57;96616.34;7397308;19;20780;-77
2023/06/04 10:08:24;;;;;;;4.57;2.67;;;;;;;20.72;49.41;96613.38;7398820;19;20742;-77
2023/06/04 10:10:54;;;;;;;4.27;2.33;;;;;;;19.91;48.47;96597.91;7398490;19;20345;-77
2023/06/04 10:13:24;;;;;;;6.10;2.83;;;;;;;20.56;49.41;96611.03;7398105;19;20437;-77
2023/06/04 10:15:52;;;;;;;4.77;4.30;;;;;;;20.79;48.44;96616.03;7397354;19;20406;-77
2023/06/04 10:18:19;;;;;;;11.27;2.70;;;;;;;21.57;47.45;96619.72;7396075;19;20370;-77
2023/06/04 10:20:47;;;;;;;2.87;2.57;;;;;;;21.67;45.96;96611.59;7397162;19;20350;-77
2023/06/04 10:23:17;;;;;;;2.80;2.60;;;;;;;22.16;44.55;96617.91;7394793;19;20436;-76
2023/06/04 10:25:45;;;;;;;3.67;2.80;;;;;;;21.83;45.98;96595.00;7398872;19;20436;-76
2023/06/04 10:28:12;;;;;;;3.27;2.90;;;;;;;21.65;45.64;96610.47;7395674;19;20391;-76
2023/06/04 10:30:39;;;;;;;6.93;4.07;;;;;;;21.99;46.10;96618.75;7398587;19;20353;-76
2023/06/04 10:33:06;;;;;;;4.00;3.20;;;;;;;22.40;46.21;96594.66;7394204;19;20439;-76
2023/06/04 10:35:34;;;;;;;3.53;2.87;;;;;;;23.06;45.04;96616.06;7398071;19;20369;-76
2023/06/04 10:38:09;;;;;;;8.23;2.50;;;;;;;22.39;46.06;96615.44;7394379;19;20908;-76
2023/06/04 10:40:37;;;;;;;2.70;2.50;;;;;;;21.42;47.82;96616.31;7396791;19;20431;-76
2023/06/04 10:43:08;;;;;;;3.40;3.07;;;;;;;21.46;47.24;96603.59;7395164;19;20440;-76
2023/06/04 10:45:35;;;;;;;3.70;2.87;;;;;;;21.84;46.28;96607.28;7397853;19;20402;-76
2023/06/04 10:48:04;;;;;;;5.43;2.90;;;;;;;22.33;47.67;96600.09;7397663;19;20912;-76
2023/06/04 10:50:33;;;;;;;3.17;2.87;;;;;;;22.08;46.60;96601.03;7398416;19;20423;-76
2023/06/04 10:53:05;;;;;;;4.53;3.77;;;;;;;21.91;45.45;96595.72;7395828;19;20428;-76
2023/06/04 10:55:33;;;;;;;3.57;3.13;;;;;;;22.85;44.12;96617.03;7397846;19;20345;-76
2023/06/04 10:58:02;;;;;;;4.03;3.63;;;;;;;22.54;45.12;96609.94;7396187;19;20341;-75
2023/06/04 11:00:41;;;;;;;3.20;2.90;;;;;;;22.73;44.08;96609.41;7397739;19;20372;-76
2023/06/04 11:03:10;;;;;;;5.00;2.70;;;;;;;23.53;44.94;96613.63;7396663;19;20436;-76
2023/06/04 11:05:39;;;;;;;5.10;2.90;;;;;;;23.65;43.82;96618.53;7394941;19;20444;-77
2023/06/04 11:08:06;;;;;;;2.60;2.40;;;;;;;23.73;43.99;96605.69;7396669;19;20383;-76
2023/06/04 11:10:35;;;;;;;3.60;2.20;;;;;;;23.34;43.30;96603.44;7395264;19;20504;-76
2023/06/04 11:13:04;;;;;;;3.07;2.63;;;;;;;23.72;42.61;96579.84;7395470;19;20393;-76
2023/06/04 11:15:48;;;;;;;2.63;2.23;;;;;;;24.06;42.20;96591.38;7394878;19;20933;-76
2023/06/04 11:18:20;;;;;;;4.20;2.77;;;;;;;24.37;42.48;96612.94;7393907;19;20376;-76
2023/06/04 11:20:50;;;;;;;6.87;3.37;;;;;;;24.06;41.18;96591.38;7398936;19;20390;-76
2023/06/04 11:23:17;;;;;;;3.97;2.83;;;;;;;22.89;41.26;96588.09;7400652;19;20952;-76
2023/06/04 11:25:45;;;;;;;3.37;2.67;;;;;;;24.01;41.78;96618.81;7403694;19;20400;-76
2023/06/04 11:28:19;;;;;;;2.37;2.17;;;;;;;24.45;41.37;96617.84;7401336;19;20387;-76
2023/06/04 11:31:02;;;;;;;6.33;3.40;;;;;;;24.22;42.01;96603.50;7402441;19;20413;-76
2023/06/04 11:33:30;;;;;;;3.10;2.60;;;;;;;24.25;41.12;96605.38;7400865;19;20510;-76
2023/06/04 11:35:57;;;;;;;3.30;2.87;;;;;;;24.20;41.69;96597.72;7404350;19;20421;-76
2023/06/04 11:38:24;;;;;;;4.90;3.00;;;;;;;23.67;41.30;96591.88;7402896;19;20404;-76
2023/06/04 11:40:59;;;;;;;3.70;3.03;;;;;;;24.15;40.57;96594.28;7404202;19;20400;-76
2023/06/04 11:43:28;;;;;;;3.87;3.10;;;;;;;24.30;41.30;96583.31;7401080;19;20476;-76